Terminal Aerodrome Forecast
Issued by NWS

Home | Current Version | Previous Version | Text Only | Print | Product List | Glossary On
Versions: 1 2 3 4 5 6 7 8 9 10 11 12 13 14 15 16 17 18 19 20 21 22 23 24 25 26
000
FTUS44 KLZK 191700
TAFLIT
TAF
KLIT 191737Z 1918/2018 06005KT P6SM SCT025
     FM191900 07005KT P6SM BKN035
     FM200000 08003KT P6SM SCT250
     FM200900 12002KT 5SM BR FEW005 SCT250
      TEMPO 2009/2012 2SM BR BKN005
     FM201400 15005KT P6SM BKN015
     FM201600 16007KT P6SM SCT035=

USA.gov is the U.S. government's official web portal to all federal, state and local government web resources and services.